Huntington Woods, MI (48070)

9:42 PM EDT on August 02, 2015 (GMT -0400)
APRSWXNET | | Change Station
CLOSE
Current Station
Personal Weather Station
Location: Ferndale, MI
Elevation: 649 ft
Nearby Weather Stations

Elev 649 ft 42.46 °N, 83.13 °W | Updated 23 minutes ago

Clear
Clear
85 °F
Feels Like 86 °F
N
2
Wind Variable Wind from NE
Gusts 5.0 mph

Today
High -- | Low -- °F
--% Chance of Precip.
Yesterday
High -- | Low -- °F
Precip. -- in
6:25 AM 8:51 PM
Waning Gibbous, 90% visible
Pressure 29.73 in
Visibility 10.0 miles
Clouds Scattered Clouds 6500 ft
Heat Index 86 °F
Dew Point 64 °F
Humidity 49%
Rainfall in
Snow Depth Not available.
UV 0 out of 12
Pollen 5.00 out of 12
Air Quality Not available.
Flu Activity Not available.
METAR KVLL 030134Z AUTO 02014G22KT 10SM SCT065 29/16 A2973 RMK AO2 T02940158

More Conditions Fewer Conditions

Pressure 29.73 in
Visibility 10.0 miles
Clouds Scattered Clouds 6500 ft
Heat Index 86 °F
Dew Point 64 °F
Humidity 49%
Rainfall in
Snow Depth Not available.
UV 0 out of 12
Pollen 5.00 out of 12
Air Quality Not available.
Flu Activity Not available.
METAR KVLL 030134Z AUTO 02014G22KT 10SM SCT065 29/16 A2973 RMK AO2 T02940158

More Conditions Fewer Conditions

10-Day Weather Forecast

×

Almanac

Astronomy

Aug. 02, 2015 Rise Set
Actual Time
Civil Twilight
Nautical Twilight
Astronomical Twilight
Moon
Length of Visible Light
Length of Day
Tomorrow will be .
, % of the Moon is Illuminated

Today's Extremes

State Highs State Lows

Community

WunderPhotos

Upload Photos

1,843,512 photos uploaded!

WunderBlogs® & News

Nearby

Air Quality

  Air Quality AQ Index Pollutant
Not available.

Snow Depth

Station Depth Elevation

Earthquake Activity

City Distance Mag. Time & Date
Minimum magnitude displayed is 2.5.

Coastal Water Temperatures

Place Temperature

Stations

Nearby Weather Stations

Station Location Temp. Windchill Dew Point Humidity Wind Precip. Elev Updated Type
                   
Severe Thunderstorm Watch
Statement as of 9:40 PM EDT on August 02, 2015

Severe Thunderstorm Watch 463 remains in effect until 200 am EDT
for the following locations


Mi
. Michigan counties included are

Allegan Barry Calhoun
Clinton Eaton Genesee
Ingham Ionia Jackson
Kalamazoo Kent Lapeer
Lenawee Livingston Macomb
Monroe Oakland Ottawa
Saginaw St. Clair Sanilac
Shiawassee Tuscola Van Buren
Washtenaw Wayne